sensor_id;sensor_type;location;lat;lon;timestamp;P1;durP1;ratioP1;P2;durP2;ratioP2
50056;SDS011;36875;49.468;11.200;2023-05-07T00:00:55;3.42;;;1.50;;
50056;SDS011;36875;49.468;11.200;2023-05-07T00:03:21;2.72;;;1.48;;
50056;SDS011;36875;49.468;11.200;2023-05-07T00:05:47;3.33;;;1.50;;
50056;SDS011;36875;49.468;11.200;2023-05-07T00:08:13;2.78;;;1.50;;
50056;SDS011;36875;49.468;11.200;2023-05-07T00:10:38;2.28;;;1.40;;
50056;SDS011;36875;49.468;11.200;2023-05-07T00:13:04;3.78;;;1.40;;
50056;SDS011;36875;49.468;11.200;2023-05-07T00:15:29;2.45;;;1.35;;
50056;SDS011;36875;49.468;11.200;2023-05-07T00:17:56;3.42;;;1.50;;
50056;SDS011;36875;49.468;11.200;2023-05-07T00:20:24;1.60;;;1.20;;
50056;SDS011;36875;49.468;11.200;2023-05-07T00:22:50;1.83;;;1.20;;
50056;SDS011;36875;49.468;11.200;2023-05-07T00:25:15;2.65;;;1.40;;
50056;SDS011;36875;49.468;11.200;2023-05-07T00:27:41;2.03;;;1.00;;
50056;SDS011;36875;49.468;11.200;2023-05-07T00:30:06;2.53;;;1.50;;
50056;SDS011;36875;49.468;11.200;2023-05-07T00:32:33;3.38;;;1.40;;
50056;SDS011;36875;49.468;11.200;2023-05-07T00:35:00;1.65;;;1.17;;
50056;SDS011;36875;49.468;11.200;2023-05-07T00:37:25;2.78;;;1.40;;
50056;SDS011;36875;49.468;11.200;2023-05-07T00:39:51;1.40;;;1.00;;
50056;SDS011;36875;49.468;11.200;2023-05-07T00:42:16;1.90;;;1.40;;
50056;SDS011;36875;49.468;11.200;2023-05-07T00:44:42;3.35;;;1.60;;
50056;SDS011;36875;49.468;11.200;2023-05-07T00:47:07;2.22;;;1.30;;
50056;SDS011;36875;49.468;11.200;2023-05-07T00:49:35;3.50;;;1.17;;
50056;SDS011;36875;49.468;11.200;2023-05-07T00:52:04;2.28;;;1.30;;
50056;SDS011;36875;49.468;11.200;2023-05-07T00:54:30;2.20;;;1.35;;
50056;SDS011;36875;49.468;11.200;2023-05-07T00:56:57;2.25;;;1.27;;
50056;SDS011;36875;49.468;11.200;2023-05-07T00:59:22;1.67;;;1.30;;
50056;SDS011;36875;49.468;11.200;2023-05-07T01:01:48;2.42;;;1.25;;
50056;SDS011;36875;49.468;11.200;2023-05-07T01:04:14;2.50;;;1.42;;
50056;SDS011;36875;49.468;11.200;2023-05-07T01:06:39;2.83;;;1.65;;
50056;SDS011;36875;49.468;11.200;2023-05-07T01:09:07;2.80;;;1.52;;
50056;SDS011;36875;49.468;11.200;2023-05-07T01:11:34;3.50;;;1.35;;
50056;SDS011;36875;49.468;11.200;2023-05-07T01:13:59;2.35;;;1.38;;
50056;SDS011;36875;49.468;11.200;2023-05-07T01:16:25;2.72;;;1.30;;
50056;SDS011;36875;49.468;11.200;2023-05-07T01:18:51;2.30;;;1.38;;
50056;SDS011;36875;49.468;11.200;2023-05-07T01:21:17;1.70;;;1.15;;
50056;SDS011;36875;49.468;11.200;2023-05-07T01:23:47;2.42;;;1.23;;
50056;SDS011;36875;49.468;11.200;2023-05-07T01:26:14;1.60;;;1.25;;
50056;SDS011;36875;49.468;11.200;2023-05-07T01:28:39;3.28;;;1.52;;
50056;SDS011;36875;49.468;11.200;2023-05-07T01:31:04;3.30;;;1.40;;
50056;SDS011;36875;49.468;11.200;2023-05-07T01:33:31;1.90;;;1.30;;
50056;SDS011;36875;49.468;11.200;2023-05-07T01:36:00;2.38;;;1.45;;
50056;SDS011;36875;49.468;11.200;2023-05-07T01:38:28;2.17;;;1.10;;
50056;SDS011;36875;49.468;11.200;2023-05-07T01:40:56;1.63;;;1.13;;
50056;SDS011;36875;49.468;11.200;2023-05-07T01:43:22;2.08;;;1.30;;
50056;SDS011;36875;49.468;11.200;2023-05-07T01:45:48;2.05;;;1.30;;
50056;SDS011;36875;49.468;11.200;2023-05-07T01:48:17;2.22;;;1.15;;
50056;SDS011;36875;49.468;11.200;2023-05-07T01:50:43;1.75;;;1.25;;
50056;SDS011;36875;49.468;11.200;2023-05-07T01:53:09;1.67;;;0.93;;
50056;SDS011;36875;49.468;11.200;2023-05-07T01:55:35;1.75;;;1.08;;
50056;SDS011;36875;49.468;11.200;2023-05-07T01:58:03;2.42;;;1.42;;
50056;SDS011;36875;49.468;11.200;2023-05-07T02:00:28;2.72;;;1.42;;
50056;SDS011;36875;49.468;11.200;2023-05-07T02:02:54;1.80;;;1.15;;
50056;SDS011;36875;49.468;11.200;2023-05-07T02:05:20;2.20;;;1.20;;
50056;SDS011;36875;49.468;11.200;2023-05-07T02:07:45;1.83;;;1.17;;
50056;SDS011;36875;49.468;11.200;2023-05-07T02:10:11;2.63;;;1.50;;
50056;SDS011;36875;49.468;11.200;2023-05-07T02:12:36;2.35;;;1.30;;
50056;SDS011;36875;49.468;11.200;2023-05-07T02:15:03;2.08;;;1.40;;
50056;SDS011;36875;49.468;11.200;2023-05-07T02:17:30;2.15;;;1.20;;
50056;SDS011;36875;49.468;11.200;2023-05-07T02:19:57;2.50;;;1.33;;
50056;SDS011;36875;49.468;11.200;2023-05-07T02:22:23;2.17;;;1.10;;
50056;SDS011;36875;49.468;11.200;2023-05-07T02:24:48;1.83;;;1.30;;
50056;SDS011;36875;49.468;11.200;2023-05-07T02:27:14;1.75;;;1.10;;
50056;SDS011;36875;49.468;11.200;2023-05-07T02:29:42;2.95;;;1.50;;
50056;SDS011;36875;49.468;11.200;2023-05-07T02:32:09;2.05;;;1.20;;
50056;SDS011;36875;49.468;11.200;2023-05-07T02:34:35;1.38;;;1.00;;
50056;SDS011;36875;49.468;11.200;2023-05-07T02:37:00;2.75;;;1.33;;
50056;SDS011;36875;49.468;11.200;2023-05-07T02:39:25;2.00;;;1.20;;
50056;SDS011;36875;49.468;11.200;2023-05-07T02:41:51;2.33;;;1.50;;
50056;SDS011;36875;49.468;11.200;2023-05-07T02:44:16;2.15;;;1.20;;
50056;SDS011;36875;49.468;11.200;2023-05-07T02:46:42;1.58;;;1.20;;
50056;SDS011;36875;49.468;11.200;2023-05-07T02:49:09;1.48;;;1.02;;
50056;SDS011;36875;49.468;11.200;2023-05-07T02:51:34;1.75;;;1.20;;
50056;SDS011;36875;49.468;11.200;2023-05-07T02:54:00;1.75;;;1.10;;
50056;SDS011;36875;49.468;11.200;2023-05-07T02:56:26;2.13;;;1.35;;
50056;SDS011;36875;49.468;11.200;2023-05-07T02:58:51;2.22;;;1.27;;
50056;SDS011;36875;49.468;11.200;2023-05-07T03:01:17;2.28;;;1.33;;
50056;SDS011;36875;49.468;11.200;2023-05-07T03:03:42;1.98;;;1.10;;
50056;SDS011;36875;49.468;11.200;2023-05-07T03:06:10;1.75;;;1.20;;
50056;SDS011;36875;49.468;11.200;2023-05-07T03:08:36;1.98;;;1.30;;
50056;SDS011;36875;49.468;11.200;2023-05-07T03:11:01;2.05;;;1.05;;
50056;SDS011;36875;49.468;11.200;2023-05-07T03:13:27;2.58;;;1.40;;
50056;SDS011;36875;49.468;11.200;2023-05-07T03:15:52;1.60;;;1.30;;
50056;SDS011;36875;49.468;11.200;2023-05-07T03:18:18;1.83;;;1.23;;
50056;SDS011;36875;49.468;11.200;2023-05-07T03:20:43;1.75;;;1.10;;
50056;SDS011;36875;49.468;11.200;2023-05-07T03:23:10;1.60;;;1.38;;
50056;SDS011;36875;49.468;11.200;2023-05-07T03:25:35;1.55;;;1.00;;
50056;SDS011;36875;49.468;11.200;2023-05-07T03:28:01;3.03;;;1.23;;
50056;SDS011;36875;49.468;11.200;2023-05-07T03:30:26;2.47;;;1.20;;
50056;SDS011;36875;49.468;11.200;2023-05-07T03:32:52;1.90;;;1.10;;
50056;SDS011;36875;49.468;11.200;2023-05-07T03:35:18;1.98;;;1.33;;
50056;SDS011;36875;49.468;11.200;2023-05-07T03:37:43;1.88;;;1.10;;
50056;SDS011;36875;49.468;11.200;2023-05-07T03:40:10;1.60;;;1.30;;
50056;SDS011;36875;49.468;11.200;2023-05-07T03:42:37;2.65;;;1.27;;
50056;SDS011;36875;49.468;11.200;2023-05-07T03:45:03;1.98;;;1.20;;
50056;SDS011;36875;49.468;11.200;2023-05-07T03:47:28;1.73;;;1.20;;
50056;SDS011;36875;49.468;11.200;2023-05-07T03:49:54;1.85;;;1.20;;
50056;SDS011;36875;49.468;11.200;2023-05-07T03:52:20;1.98;;;1.40;;
50056;SDS011;36875;49.468;11.200;2023-05-07T03:54:49;2.05;;;1.20;;
50056;SDS011;36875;49.468;11.200;2023-05-07T03:57:16;1.85;;;1.10;;
50056;SDS011;36875;49.468;11.200;2023-05-07T03:59:41;1.98;;;1.30;;
50056;SDS011;36875;49.468;11.200;2023-05-07T04:02:07;1.80;;;1.35;;
50056;SDS011;36875;49.468;11.200;2023-05-07T04:04:32;2.65;;;1.30;;
50056;SDS011;36875;49.468;11.200;2023-05-07T04:06:58;1.58;;;1.10;;
50056;SDS011;36875;49.468;11.200;2023-05-07T04:09:24;1.45;;;1.20;;
50056;SDS011;36875;49.468;11.200;2023-05-07T04:11:50;2.28;;;1.33;;
50056;SDS011;36875;49.468;11.200;2023-05-07T04:14:17;1.55;;;1.27;;
50056;SDS011;36875;49.468;11.200;2023-05-07T04:16:42;1.77;;;1.20;;
50056;SDS011;36875;49.468;11.200;2023-05-07T04:19:08;2.30;;;1.25;;
50056;SDS011;36875;49.468;11.200;2023-05-07T04:21:33;1.98;;;1.40;;
50056;SDS011;36875;49.468;11.200;2023-05-07T04:23:59;1.90;;;1.30;;
50056;SDS011;36875;49.468;11.200;2023-05-07T04:26:25;2.10;;;1.10;;
50056;SDS011;36875;49.468;11.200;2023-05-07T04:28:50;1.67;;;1.30;;
50056;SDS011;36875;49.468;11.200;2023-05-07T04:31:17;1.40;;;1.23;;
50056;SDS011;36875;49.468;11.200;2023-05-07T04:33:42;1.73;;;1.20;;
50056;SDS011;36875;49.468;11.200;2023-05-07T04:36:08;1.67;;;1.20;;
50056;SDS011;36875;49.468;11.200;2023-05-07T04:38:37;2.22;;;1.33;;
50056;SDS011;36875;49.468;11.200;2023-05-07T04:41:03;1.90;;;1.00;;
50056;SDS011;36875;49.468;11.200;2023-05-07T04:43:29;1.83;;;1.20;;
50056;SDS011;36875;49.468;11.200;2023-05-07T04:45:54;2.35;;;1.45;;
50056;SDS011;36875;49.468;11.200;2023-05-07T04:48:21;1.83;;;1.30;;
50056;SDS011;36875;49.468;11.200;2023-05-07T04:50:47;1.80;;;1.30;;
50056;SDS011;36875;49.468;11.200;2023-05-07T04:53:13;2.25;;;1.50;;
50056;SDS011;36875;49.468;11.200;2023-05-07T04:55:38;2.42;;;1.30;;
50056;SDS011;36875;49.468;11.200;2023-05-07T04:58:04;1.30;;;1.20;;
50056;SDS011;36875;49.468;11.200;2023-05-07T05:00:30;1.85;;;1.33;;
50056;SDS011;36875;49.468;11.200;2023-05-07T05:02:56;1.67;;;1.30;;
50056;SDS011;36875;49.468;11.200;2023-05-07T05:05:23;2.20;;;1.30;;
50056;SDS011;36875;49.468;11.200;2023-05-07T05:07:48;2.17;;;1.40;;
50056;SDS011;36875;49.468;11.200;2023-05-07T05:10:14;1.92;;;1.30;;
50056;SDS011;36875;49.468;11.200;2023-05-07T05:12:39;2.22;;;1.58;;
50056;SDS011;36875;49.468;11.200;2023-05-07T05:15:05;1.75;;;1.10;;
50056;SDS011;36875;49.468;11.200;2023-05-07T05:17:32;1.85;;;1.35;;
50056;SDS011;36875;49.468;11.200;2023-05-07T05:19:59;1.92;;;1.30;;
50056;SDS011;36875;49.468;11.200;2023-05-07T05:22:26;1.42;;;1.20;;
50056;SDS011;36875;49.468;11.200;2023-05-07T05:24:54;2.22;;;1.40;;
50056;SDS011;36875;49.468;11.200;2023-05-07T05:27:20;2.15;;;1.55;;
50056;SDS011;36875;49.468;11.200;2023-05-07T05:29:45;1.52;;;1.30;;
50056;SDS011;36875;49.468;11.200;2023-05-07T05:32:11;2.08;;;1.33;;
50056;SDS011;36875;49.468;11.200;2023-05-07T05:34:36;2.20;;;1.33;;
50056;SDS011;36875;49.468;11.200;2023-05-07T05:37:02;3.28;;;1.20;;
50056;SDS011;36875;49.468;11.200;2023-05-07T05:39:29;1.88;;;1.30;;
50056;SDS011;36875;49.468;11.200;2023-05-07T05:41:54;2.80;;;1.60;;
50056;SDS011;36875;49.468;11.200;2023-05-07T05:44:20;2.35;;;1.42;;
50056;SDS011;36875;49.468;11.200;2023-05-07T05:46:45;1.60;;;1.25;;
50056;SDS011;36875;49.468;11.200;2023-05-07T05:49:11;1.42;;;1.27;;
50056;SDS011;36875;49.468;11.200;2023-05-07T05:51:36;1.70;;;1.30;;
50056;SDS011;36875;49.468;11.200;2023-05-07T05:54:02;1.63;;;1.17;;
50056;SDS011;36875;49.468;11.200;2023-05-07T05:56:29;2.35;;;1.38;;
50056;SDS011;36875;49.468;11.200;2023-05-07T05:58:54;2.97;;;1.38;;
50056;SDS011;36875;49.468;11.200;2023-05-07T06:01:20;2.88;;;1.63;;
50056;SDS011;36875;49.468;11.200;2023-05-07T06:03:46;1.95;;;1.35;;
50056;SDS011;36875;49.468;11.200;2023-05-07T06:06:11;2.33;;;1.40;;
50056;SDS011;36875;49.468;11.200;2023-05-07T06:08:36;1.85;;;1.30;;
50056;SDS011;36875;49.468;11.200;2023-05-07T06:11:02;2.08;;;1.40;;
50056;SDS011;36875;49.468;11.200;2023-05-07T06:13:29;2.95;;;1.30;;
50056;SDS011;36875;49.468;11.200;2023-05-07T06:15:55;2.22;;;1.50;;
50056;SDS011;36875;49.468;11.200;2023-05-07T06:18:20;2.33;;;1.50;;
50056;SDS011;36875;49.468;11.200;2023-05-07T06:20:46;1.83;;;1.33;;
50056;SDS011;36875;49.468;11.200;2023-05-07T06:23:11;2.78;;;1.30;;
50056;SDS011;36875;49.468;11.200;2023-05-07T06:25:37;2.03;;;1.30;;
50056;SDS011;36875;49.468;11.200;2023-05-07T06:28:02;2.38;;;1.42;;
50056;SDS011;36875;49.468;11.200;2023-05-07T06:30:29;1.63;;;1.17;;
50056;SDS011;36875;49.468;11.200;2023-05-07T06:32:55;2.08;;;1.48;;
50056;SDS011;36875;49.468;11.200;2023-05-07T06:35:20;2.45;;;1.27;;
50056;SDS011;36875;49.468;11.200;2023-05-07T06:37:46;2.65;;;1.40;;
50056;SDS011;36875;49.468;11.200;2023-05-07T06:40:11;5.93;;;1.42;;
50056;SDS011;36875;49.468;11.200;2023-05-07T06:42:37;3.25;;;1.50;;
50056;SDS011;36875;49.468;11.200;2023-05-07T06:45:03;3.08;;;1.58;;
50056;SDS011;36875;49.468;11.200;2023-05-07T06:47:30;3.78;;;1.90;;
50056;SDS011;36875;49.468;11.200;2023-05-07T06:49:56;2.10;;;1.48;;
50056;SDS011;36875;49.468;11.200;2023-05-07T06:52:21;3.22;;;1.73;;
50056;SDS011;36875;49.468;11.200;2023-05-07T06:54:47;2.75;;;1.75;;
50056;SDS011;36875;49.468;11.200;2023-05-07T06:57:14;7.13;;;1.70;;
50056;SDS011;36875;49.468;11.200;2023-05-07T06:59:39;5.60;;;1.90;;
50056;SDS011;36875;49.468;11.200;2023-05-07T07:02:05;4.38;;;1.73;;
50056;SDS011;36875;49.468;11.200;2023-05-07T07:04:32;6.32;;;1.67;;
50056;SDS011;36875;49.468;11.200;2023-05-07T07:06:58;2.58;;;1.67;;
50056;SDS011;36875;49.468;11.200;2023-05-07T07:09:23;4.05;;;1.70;;
50056;SDS011;36875;49.468;11.200;2023-05-07T07:11:49;5.47;;;2.45;;
50056;SDS011;36875;49.468;11.200;2023-05-07T07:14:14;3.90;;;1.67;;
50056;SDS011;36875;49.468;11.200;2023-05-07T07:16:39;4.88;;;1.60;;
50056;SDS011;36875;49.468;11.200;2023-05-07T07:19:05;5.82;;;1.70;;
50056;SDS011;36875;49.468;11.200;2023-05-07T07:21:32;5.43;;;1.70;;
50056;SDS011;36875;49.468;11.200;2023-05-07T07:23:58;3.30;;;1.60;;
50056;SDS011;36875;49.468;11.200;2023-05-07T07:26:23;4.00;;;1.70;;
50056;SDS011;36875;49.468;11.200;2023-05-07T07:28:49;5.07;;;1.60;;
50056;SDS011;36875;49.468;11.200;2023-05-07T07:31:14;5.45;;;2.22;;
50056;SDS011;36875;49.468;11.200;2023-05-07T07:33:40;4.93;;;2.60;;
50056;SDS011;36875;49.468;11.200;2023-05-07T07:36:06;6.85;;;2.58;;
50056;SDS011;36875;49.468;11.200;2023-05-07T07:38:33;6.20;;;3.08;;
50056;SDS011;36875;49.468;11.200;2023-05-07T07:41:00;6.60;;;3.20;;
50056;SDS011;36875;49.468;11.200;2023-05-07T07:43:25;7.28;;;3.53;;
50056;SDS011;36875;49.468;11.200;2023-05-07T07:45:51;7.88;;;2.90;;
50056;SDS011;36875;49.468;11.200;2023-05-07T07:48:16;4.85;;;2.80;;
50056;SDS011;36875;49.468;11.200;2023-05-07T07:50:42;5.88;;;2.75;;
50056;SDS011;36875;49.468;11.200;2023-05-07T07:53:07;9.15;;;3.60;;
50056;SDS011;36875;49.468;11.200;2023-05-07T07:55:35;4.65;;;2.75;;
50056;SDS011;36875;49.468;11.200;2023-05-07T07:58:03;8.27;;;3.10;;
50056;SDS011;36875;49.468;11.200;2023-05-07T08:00:29;8.80;;;3.40;;
50056;SDS011;36875;49.468;11.200;2023-05-07T08:02:54;7.38;;;3.60;;
50056;SDS011;36875;49.468;11.200;2023-05-07T08:05:20;7.97;;;3.10;;
50056;SDS011;36875;49.468;11.200;2023-05-07T08:07:45;9.02;;;2.95;;
50056;SDS011;36875;49.468;11.200;2023-05-07T08:12:47;11.27;;;3.55;;
50056;SDS011;36875;49.468;11.200;2023-05-07T08:15:13;12.98;;;3.63;;
50056;SDS011;36875;49.468;11.200;2023-05-07T08:17:38;8.52;;;3.47;;
50056;SDS011;36875;49.468;11.200;2023-05-07T08:20:04;9.93;;;3.65;;
50056;SDS011;36875;49.468;11.200;2023-05-07T08:22:31;13.85;;;3.38;;
50056;SDS011;36875;49.468;11.200;2023-05-07T08:24:56;11.65;;;2.88;;
50056;SDS011;36875;49.468;11.200;2023-05-07T08:27:22;6.72;;;3.13;;
50056;SDS011;36875;49.468;11.200;2023-05-07T08:29:49;9.60;;;3.30;;
50056;SDS011;36875;49.468;11.200;2023-05-07T08:32:14;10.85;;;3.63;;
50056;SDS011;36875;49.468;11.200;2023-05-07T08:34:40;8.35;;;3.30;;
50056;SDS011;36875;49.468;11.200;2023-05-07T08:37:05;7.65;;;3.00;;
50056;SDS011;36875;49.468;11.200;2023-05-07T08:39:31;5.88;;;3.20;;
50056;SDS011;36875;49.468;11.200;2023-05-07T08:41:56;7.03;;;3.17;;
50056;SDS011;36875;49.468;11.200;2023-05-07T08:44:26;8.07;;;3.47;;
50056;SDS011;36875;49.468;11.200;2023-05-07T08:46:54;11.13;;;3.75;;
50056;SDS011;36875;49.468;11.200;2023-05-07T08:49:21;5.93;;;3.25;;
50056;SDS011;36875;49.468;11.200;2023-05-07T08:51:47;10.07;;;3.30;;
50056;SDS011;36875;49.468;11.200;2023-05-07T08:54:15;6.88;;;2.95;;
50056;SDS011;36875;49.468;11.200;2023-05-07T08:56:41;10.02;;;3.17;;
50056;SDS011;36875;49.468;11.200;2023-05-07T08:59:06;8.20;;;3.30;;
50056;SDS011;36875;49.468;11.200;2023-05-07T09:01:32;8.25;;;3.20;;
50056;SDS011;36875;49.468;11.200;2023-05-07T09:04:01;8.73;;;3.50;;
50056;SDS011;36875;49.468;11.200;2023-05-07T09:06:27;11.20;;;4.82;;
50056;SDS011;36875;49.468;11.200;2023-05-07T09:08:54;11.40;;;3.97;;
50056;SDS011;36875;49.468;11.200;2023-05-07T09:11:20;7.03;;;3.20;;
50056;SDS011;36875;49.468;11.200;2023-05-07T09:13:46;7.07;;;3.22;;
50056;SDS011;36875;49.468;11.200;2023-05-07T09:16:12;7.75;;;3.55;;
50056;SDS011;36875;49.468;11.200;2023-05-07T09:18:41;11.57;;;3.83;;
50056;SDS011;36875;49.468;11.200;2023-05-07T09:21:10;7.60;;;3.38;;
50056;SDS011;36875;49.468;11.200;2023-05-07T09:23:36;7.25;;;3.58;;
50056;SDS011;36875;49.468;11.200;2023-05-07T09:26:01;10.25;;;4.00;;
50056;SDS011;36875;49.468;11.200;2023-05-07T09:28:27;8.18;;;4.20;;
50056;SDS011;36875;49.468;11.200;2023-05-07T09:30:52;9.38;;;4.20;;
50056;SDS011;36875;49.468;11.200;2023-05-07T09:33:18;7.63;;;4.15;;
50056;SDS011;36875;49.468;11.200;2023-05-07T09:35:43;10.68;;;4.25;;
50056;SDS011;36875;49.468;11.200;2023-05-07T09:38:11;7.45;;;3.85;;
50056;SDS011;36875;49.468;11.200;2023-05-07T09:40:37;11.25;;;3.60;;
50056;SDS011;36875;49.468;11.200;2023-05-07T09:43:09;8.65;;;4.20;;
50056;SDS011;36875;49.468;11.200;2023-05-07T09:45:36;9.10;;;3.72;;
50056;SDS011;36875;49.468;11.200;2023-05-07T09:48:02;9.45;;;4.13;;
50056;SDS011;36875;49.468;11.200;2023-05-07T09:50:32;13.02;;;4.45;;
50056;SDS011;36875;49.468;11.200;2023-05-07T09:53:01;10.15;;;4.43;;
50056;SDS011;36875;49.468;11.200;2023-05-07T09:55:30;9.27;;;4.10;;
50056;SDS011;36875;49.468;11.200;2023-05-07T09:57:56;9.18;;;4.03;;
50056;SDS011;36875;49.468;11.200;2023-05-07T10:00:22;9.18;;;4.20;;
50056;SDS011;36875;49.468;11.200;2023-05-07T10:02:51;10.27;;;3.72;;
50056;SDS011;36875;49.468;11.200;2023-05-07T10:05:17;11.73;;;4.10;;
50056;SDS011;36875;49.468;11.200;2023-05-07T10:07:43;10.73;;;4.07;;
50056;SDS011;36875;49.468;11.200;2023-05-07T10:10:10;12.95;;;4.20;;
50056;SDS011;36875;49.468;11.200;2023-05-07T10:12:37;10.35;;;4.30;;
50056;SDS011;36875;49.468;11.200;2023-05-07T10:15:05;9.60;;;4.00;;
50056;SDS011;36875;49.468;11.200;2023-05-07T10:17:32;10.05;;;4.60;;
50056;SDS011;36875;49.468;11.200;2023-05-07T10:20:00;11.88;;;4.30;;
50056;SDS011;36875;49.468;11.200;2023-05-07T10:22:25;9.13;;;4.53;;
50056;SDS011;36875;49.468;11.200;2023-05-07T10:24:53;12.13;;;4.43;;
50056;SDS011;36875;49.468;11.200;2023-05-07T10:27:22;10.20;;;4.55;;
50056;SDS011;36875;49.468;11.200;2023-05-07T10:29:51;11.05;;;4.35;;
50056;SDS011;36875;49.468;11.200;2023-05-07T10:32:29;12.13;;;4.60;;
50056;SDS011;36875;49.468;11.200;2023-05-07T10:35:02;8.70;;;4.25;;
50056;SDS011;36875;49.468;11.200;2023-05-07T10:37:31;8.23;;;4.05;;
50056;SDS011;36875;49.468;11.200;2023-05-07T10:39:57;10.75;;;4.18;;
50056;SDS011;36875;49.468;11.200;2023-05-07T10:42:24;7.72;;;4.63;;
50056;SDS011;36875;49.468;11.200;2023-05-07T10:44:51;8.80;;;4.30;;
50056;SDS011;36875;49.468;11.200;2023-05-07T10:47:16;9.35;;;4.53;;
50056;SDS011;36875;49.468;11.200;2023-05-07T10:52:45;7.40;;;4.03;;
50056;SDS011;36875;49.468;11.200;2023-05-07T10:55:49;6.55;;;3.88;;
50056;SDS011;36875;49.468;11.200;2023-05-07T10:58:22;11.93;;;4.70;;
50056;SDS011;36875;49.468;11.200;2023-05-07T11:00:55;8.25;;;4.20;;
50056;SDS011;36875;49.468;11.200;2023-05-07T11:03:22;8.60;;;3.88;;
50056;SDS011;36875;49.468;11.200;2023-05-07T11:05:47;6.18;;;3.90;;
50056;SDS011;36875;49.468;11.200;2023-05-07T11:11:18;9.52;;;3.72;;
50056;SDS011;36875;49.468;11.200;2023-05-07T11:13:47;6.03;;;3.80;;
50056;SDS011;36875;49.468;11.200;2023-05-07T11:16:18;6.45;;;3.58;;
50056;SDS011;36875;49.468;11.200;2023-05-07T11:18:48;7.82;;;3.92;;
50056;SDS011;36875;49.468;11.200;2023-05-07T11:24:00;10.80;;;4.55;;
50056;SDS011;36875;49.468;11.200;2023-05-07T11:26:30;7.65;;;3.95;;
50056;SDS011;36875;49.468;11.200;2023-05-07T11:29:09;6.30;;;3.45;;
50056;SDS011;36875;49.468;11.200;2023-05-07T11:31:37;9.20;;;4.00;;
50056;SDS011;36875;49.468;11.200;2023-05-07T11:34:03;6.28;;;4.32;;
50056;SDS011;36875;49.468;11.200;2023-05-07T11:36:30;6.93;;;3.95;;
50056;SDS011;36875;49.468;11.200;2023-05-07T11:38:57;6.43;;;3.67;;
50056;SDS011;36875;49.468;11.200;2023-05-07T11:41:22;6.88;;;4.07;;
50056;SDS011;36875;49.468;11.200;2023-05-07T11:43:59;10.00;;;3.80;;
50056;SDS011;36875;49.468;11.200;2023-05-07T11:46:26;6.43;;;4.00;;
50056;SDS011;36875;49.468;11.200;2023-05-07T11:48:54;5.90;;;3.60;;
50056;SDS011;36875;49.468;11.200;2023-05-07T11:51:20;7.57;;;3.63;;
50056;SDS011;36875;49.468;11.200;2023-05-07T11:53:46;7.32;;;3.65;;
50056;SDS011;36875;49.468;11.200;2023-05-07T11:56:13;6.85;;;3.97;;
50056;SDS011;36875;49.468;11.200;2023-05-07T11:58:40;6.43;;;3.42;;
50056;SDS011;36875;49.468;11.200;2023-05-07T12:01:07;8.30;;;3.90;;
50056;SDS011;36875;49.468;11.200;2023-05-07T12:03:33;6.97;;;3.60;;
50056;SDS011;36875;49.468;11.200;2023-05-07T12:06:00;6.53;;;3.67;;
50056;SDS011;36875;49.468;11.200;2023-05-07T12:08:26;7.38;;;3.63;;
50056;SDS011;36875;49.468;11.200;2023-05-07T12:10:52;10.80;;;4.00;;
50056;SDS011;36875;49.468;11.200;2023-05-07T12:13:17;6.43;;;3.50;;
50056;SDS011;36875;49.468;11.200;2023-05-07T12:15:44;7.45;;;4.10;;
50056;SDS011;36875;49.468;11.200;2023-05-07T12:18:10;5.05;;;3.35;;
50056;SDS011;36875;49.468;11.200;2023-05-07T12:20:36;5.00;;;3.80;;
50056;SDS011;36875;49.468;11.200;2023-05-07T12:23:03;5.85;;;3.63;;
50056;SDS011;36875;49.468;11.200;2023-05-07T12:25:29;6.78;;;4.03;;
50056;SDS011;36875;49.468;11.200;2023-05-07T12:27:55;5.15;;;3.40;;
50056;SDS011;36875;49.468;11.200;2023-05-07T12:30:23;5.90;;;3.60;;
50056;SDS011;36875;49.468;11.200;2023-05-07T12:32:51;6.35;;;3.78;;
50056;SDS011;36875;49.468;11.200;2023-05-07T12:35:17;5.78;;;3.60;;
50056;SDS011;36875;49.468;11.200;2023-05-07T12:37:54;5.55;;;3.75;;
50056;SDS011;36875;49.468;11.200;2023-05-07T12:40:21;7.50;;;3.47;;
50056;SDS011;36875;49.468;11.200;2023-05-07T12:42:47;4.40;;;3.22;;
50056;SDS011;36875;49.468;11.200;2023-05-07T12:45:19;6.25;;;3.55;;
50056;SDS011;36875;49.468;11.200;2023-05-07T12:47:44;7.97;;;4.00;;
50056;SDS011;36875;49.468;11.200;2023-05-07T12:50:10;5.40;;;3.40;;
50056;SDS011;36875;49.468;11.200;2023-05-07T12:52:36;4.68;;;3.70;;
50056;SDS011;36875;49.468;11.200;2023-05-07T12:55:05;6.25;;;3.45;;
50056;SDS011;36875;49.468;11.200;2023-05-07T12:57:38;4.70;;;3.22;;
50056;SDS011;36875;49.468;11.200;2023-05-07T13:00:05;4.93;;;2.90;;
50056;SDS011;36875;49.468;11.200;2023-05-07T13:02:32;5.38;;;3.70;;
50056;SDS011;36875;49.468;11.200;2023-05-07T13:04:57;5.45;;;3.20;;
50056;SDS011;36875;49.468;11.200;2023-05-07T13:07:24;5.53;;;3.40;;
50056;SDS011;36875;49.468;11.200;2023-05-07T13:09:49;5.20;;;3.45;;
50056;SDS011;36875;49.468;11.200;2023-05-07T13:12:15;5.70;;;3.53;;
50056;SDS011;36875;49.468;11.200;2023-05-07T13:14:42;5.63;;;3.50;;
50056;SDS011;36875;49.468;11.200;2023-05-07T13:17:07;6.72;;;3.20;;
50056;SDS011;36875;49.468;11.200;2023-05-07T13:19:33;5.00;;;3.30;;
50056;SDS011;36875;49.468;11.200;2023-05-07T13:21:58;5.70;;;3.15;;
50056;SDS011;36875;49.468;11.200;2023-05-07T13:24:24;4.38;;;3.25;;
50056;SDS011;36875;49.468;11.200;2023-05-07T13:26:49;4.20;;;3.15;;
50056;SDS011;36875;49.468;11.200;2023-05-07T13:29:15;5.15;;;3.30;;
50056;SDS011;36875;49.468;11.200;2023-05-07T13:31:42;5.10;;;3.00;;
50056;SDS011;36875;49.468;11.200;2023-05-07T13:34:09;4.93;;;3.42;;
50056;SDS011;36875;49.468;11.200;2023-05-07T13:36:34;5.32;;;3.28;;
50056;SDS011;36875;49.468;11.200;2023-05-07T13:39:02;5.35;;;3.08;;
50056;SDS011;36875;49.468;11.200;2023-05-07T13:41:27;5.05;;;2.95;;
50056;SDS011;36875;49.468;11.200;2023-05-07T13:43:53;5.68;;;3.53;;
50056;SDS011;36875;49.468;11.200;2023-05-07T13:46:18;5.30;;;3.40;;
50056;SDS011;36875;49.468;11.200;2023-05-07T13:48:45;4.72;;;3.25;;
50056;SDS011;36875;49.468;11.200;2023-05-07T13:51:11;3.80;;;2.90;;
50056;SDS011;36875;49.468;11.200;2023-05-07T13:53:36;7.28;;;3.28;;
50056;SDS011;36875;49.468;11.200;2023-05-07T13:56:02;5.28;;;3.20;;
50056;SDS011;36875;49.468;11.200;2023-05-07T13:58:29;4.95;;;3.00;;
50056;SDS011;36875;49.468;11.200;2023-05-07T14:00:55;4.47;;;3.35;;
50056;SDS011;36875;49.468;11.200;2023-05-07T14:03:20;5.90;;;3.50;;
50056;SDS011;36875;49.468;11.200;2023-05-07T14:05:47;5.10;;;3.20;;
50056;SDS011;36875;49.468;11.200;2023-05-07T14:08:12;4.20;;;3.20;;
50056;SDS011;36875;49.468;11.200;2023-05-07T14:10:39;6.05;;;3.60;;
50056;SDS011;36875;49.468;11.200;2023-05-07T14:13:04;7.10;;;3.35;;
50056;SDS011;36875;49.468;11.200;2023-05-07T14:15:30;5.25;;;3.03;;
50056;SDS011;36875;49.468;11.200;2023-05-07T14:17:57;4.28;;;3.25;;
50056;SDS011;36875;49.468;11.200;2023-05-07T14:20:24;6.05;;;3.25;;
50056;SDS011;36875;49.468;11.200;2023-05-07T14:22:51;4.68;;;3.30;;
50056;SDS011;36875;49.468;11.200;2023-05-07T14:25:16;4.03;;;3.15;;
50056;SDS011;36875;49.468;11.200;2023-05-07T14:27:42;4.25;;;3.17;;
50056;SDS011;36875;49.468;11.200;2023-05-07T14:30:07;5.07;;;3.15;;
50056;SDS011;36875;49.468;11.200;2023-05-07T14:32:33;4.00;;;3.15;;
50056;SDS011;36875;49.468;11.200;2023-05-07T14:34:59;4.75;;;3.13;;
50056;SDS011;36875;49.468;11.200;2023-05-07T14:37:25;5.90;;;3.20;;
50056;SDS011;36875;49.468;11.200;2023-05-07T14:39:54;4.28;;;2.85;;